Fairchild International, WA

5:22 AM PDT on August 22, 2014 (GMT -0700)
Fairchild International | Change Station
CLOSE
Current Station
Airport
Location: Port Angeles,
Elevation: 289 ft
Nearby Weather Stations

Elev 289 ft 48.12 °N, 123.50 °W | Updated 19 minutes ago

Overcast
Overcast
50 °F
Feels Like 50 °F
N
6
Wind Variable Wind from West

Today
High -- | Low -- °F
--% Chance of Precip.
Yesterday
High -- | Low -- °F
Precip. -- in
6:18 AM 8:14 PM
Waning Crescent, 8% visible
Pressure 30.04 in
Visibility 3.0 miles
Clouds Overcast 200 ft
Dew Point 49 °F
Humidity 96%
Rainfall 0.00 in
Snow Depth Not available.
UV 0 out of 12
Pollen 2.80 out of 12
Air Quality Not available.
Flu Activity Not available.
SPECI KCLM 221203Z AUTO 26005KT 3SM BR OVC002 10/09 A3004 RMK AO2 T01000094 $

More Conditions Fewer Conditions

Pressure 30.04 in
Visibility 3.0 miles
Clouds Overcast 200 ft
Dew Point 49 °F
Humidity 96%
Rainfall 0.00 in
Snow Depth Not available.
UV 0 out of 12
Pollen 2.80 out of 12
Air Quality Not available.
Flu Activity Not available.
SPECI KCLM 221203Z AUTO 26005KT 3SM BR OVC002 10/09 A3004 RMK AO2 T01000094 $

More Conditions Fewer Conditions

10-Day Weather Forecast

Almanac

Astronomy

Aug. 22, 2014 Rise Set
Actual Time 6:18 AM PDT 8:14 PM PDT
Civil Twilight 5:44 AM PDT 8:47 PM PDT
Nautical Twilight 5:03 AM PDT 9:28 PM PDT
Astronomical Twilight 4:17 AM PDT 10:13 PM PDT
Moon 3:40 AM PDT 6:30 PM PDT
Length of Visible Light 15h 02m
Length of Day
13h 56m
Tomorrow will be 3m 17s shorter.
Waning Crescent, 8% of the Moon is Illuminated
Today
Waning Crescent
Aug 25
New
Sep 2
First Quarter
Sep 8
Full
Sep 15
Last Quarter

Today's Extremes

State Highs State Lows

Community

WunderPhotos

Upload Photos

1,746,156 photos uploaded!

WunderBlogs® & News

By Dr. Jeff Masters
Director of Meteorology, Weather Underground
By Kari Strenfel
Meteorologist, Weather Underground
By Christopher C. Burt
Weather Historian, Weather Underground
August 22, 2014
August 22, 2014
August 22, 2014

Nearby

Snow Depth

Station Depth Elevation
Dungeness 0 in 4100 ft
Mount Crag 0 in 4050 ft
Alpine Meadows 0 in 3500 ft
Mf Nooksack 0 in 4980 ft
Burnt Mountain 0 in 4200 ft

Earthquake Activity

City Distance Mag. Time & Date
No recent earthquake activity has been reported nearby.
Minimum magnitude displayed is 2.5.

Coastal Water Temperatures

Place Temperature
Port Angeles, WA 54.0 °F
Friday Harbor, WA 54.0 °F
Port Townsend, WA 53.1 °F
La Push, WA 57.0 °F

Nearby Weather Stations